Elysian, MN

1:22 AM CDT on October 26, 2014 (GMT -0500)
North East Blue Earth County, Minnesota | Change Station
CLOSE
Current Station
Personal Weather Station
Location: Eagle Lake, MN
Elevation: 1010 ft
Nearby Weather Stations

Elev 1010 ft 44.17 °N, 93.84 °W | Updated 6 minutes ago

Clear
Clear
33.5 °F
Feels Like 34 °F
N
0.0
Wind Variable Wind from NNE
Gusts 1.0 mph

Today
High -- | Low -- °F
--% Chance of Precip.
Yesterday
High -- | Low -- °F
Precip. -- in
7:43 AM 6:13 PM
Waxing Crescent, 6% visible
Pressure 30.05 in
Visibility 10.0 miles
Clouds Clear
Windchill 34 °F
Dew Point 29 °F
Humidity 82%
Rainfall 0.00 in
Snow Depth Not available.
UV 0 out of 12
Pollen 2.10 out of 12
Ozone Good
PM2.5 Moderate
Flu Activity Sporadic
METAR KMKT 260615Z AUTO 00000KT 10SM CLR 06/00 A3005 RMK AO1

More Conditions Fewer Conditions

Pressure 30.05 in
Visibility 10.0 miles
Clouds Clear
Windchill 34 °F
Dew Point 29 °F
Humidity 82%
Rainfall 0.00 in
Snow Depth Not available.
UV 0 out of 12
Pollen 2.10 out of 12
Ozone Good
PM2.5 Moderate
Flu Activity Sporadic
METAR KMKT 260615Z AUTO 00000KT 10SM CLR 06/00 A3005 RMK AO1

More Conditions Fewer Conditions

10-Day Weather Forecast

Almanac

Astronomy

Oct. 26, 2014 Rise Set
Actual Time 7:43 AM CDT 6:13 PM CDT
Civil Twilight 7:14 AM CDT 6:42 PM CDT
Nautical Twilight 6:40 AM CDT 7:16 PM CDT
Astronomical Twilight 6:06 AM CDT 7:50 PM CDT
Moon 10:26 AM CDT 8:21 PM CDT
Length of Visible Light 11h 28m
Length of Day
10h 29m
Tomorrow will be 2m 48s shorter.
Waxing Crescent, 6% of the Moon is Illuminated
Today
Waxing Crescent
Oct 30
First Quarter
Nov 6
Full
Nov 14
Last Quarter
Nov 22
New

Today's Extremes

State Highs State Lows

Community

WunderPhotos

Upload Photos

1,765,114 photos uploaded!

Nearby

Air Quality

  Air Quality AQ Index Pollutant
Yesterday Moderate
PM2.5
Yesterday Good
OZONE
Current Moderate
PM2.5
Current Good
OZONE
Saturday Good
PM2.5
Sunday Moderate
PM2.5
Monday Good
PM2.5
Tuesday Good
PM2.5
Wednesday Good
PM2.5
Thursday Good
PM2.5

Snow Depth

Station Depth Elevation
No new snow has been reported.

Earthquake Activity

City Distance Mag. Time & Date
No recent earthquake activity has been reported nearby.
Minimum magnitude displayed is 2.5.

Coastal Water Temperatures

Place Temperature
No Stations Reporting

Nearby Weather Stations